sensor_id;sensor_type;location;lat;lon;timestamp;P1;durP1;ratioP1;P2;durP2;ratioP2
66145;SDS011;52948;60.040;30.320;2023-08-30T00:04:34;9.68;;;5.88;;
66145;SDS011;52948;60.040;30.320;2023-08-30T00:09:37;10.95;;;6.65;;
66145;SDS011;52948;60.040;30.320;2023-08-30T00:14:39;13.00;;;7.85;;
66145;SDS011;52948;60.040;30.320;2023-08-30T00:19:41;10.63;;;6.07;;
66145;SDS011;52948;60.040;30.320;2023-08-30T00:24:44;15.32;;;7.03;;
66145;SDS011;52948;60.040;30.320;2023-08-30T00:29:47;17.75;;;8.60;;
66145;SDS011;52948;60.040;30.320;2023-08-30T00:34:50;12.95;;;7.55;;
66145;SDS011;52948;60.040;30.320;2023-08-30T00:39:53;12.15;;;7.85;;
66145;SDS011;52948;60.040;30.320;2023-08-30T00:44:55;12.90;;;7.20;;
66145;SDS011;52948;60.040;30.320;2023-08-30T00:49:58;14.15;;;7.05;;
66145;SDS011;52948;60.040;30.320;2023-08-30T00:55:00;12.02;;;6.88;;
66145;SDS011;52948;60.040;30.320;2023-08-30T01:00:03;10.45;;;6.30;;
66145;SDS011;52948;60.040;30.320;2023-08-30T01:05:09;13.83;;;6.97;;
66145;SDS011;52948;60.040;30.320;2023-08-30T01:10:12;15.25;;;6.07;;
66145;SDS011;52948;60.040;30.320;2023-08-30T01:15:21;13.02;;;6.57;;
66145;SDS011;52948;60.040;30.320;2023-08-30T01:20:24;13.65;;;6.53;;
66145;SDS011;52948;60.040;30.320;2023-08-30T01:25:48;12.82;;;6.90;;
66145;SDS011;52948;60.040;30.320;2023-08-30T01:30:57;11.52;;;6.88;;
66145;SDS011;52948;60.040;30.320;2023-08-30T01:36:02;10.20;;;5.85;;
66145;SDS011;52948;60.040;30.320;2023-08-30T01:41:05;9.45;;;6.15;;
66145;SDS011;52948;60.040;30.320;2023-08-30T01:46:07;9.02;;;5.50;;
66145;SDS011;52948;60.040;30.320;2023-08-30T01:51:10;11.93;;;6.60;;
66145;SDS011;52948;60.040;30.320;2023-08-30T01:56:12;10.63;;;5.55;;
66145;SDS011;52948;60.040;30.320;2023-08-30T02:01:14;13.00;;;6.28;;
66145;SDS011;52948;60.040;30.320;2023-08-30T02:06:21;12.68;;;5.88;;
66145;SDS011;52948;60.040;30.320;2023-08-30T02:11:28;8.48;;;5.60;;
66145;SDS011;52948;60.040;30.320;2023-08-30T02:16:32;9.77;;;5.60;;
66145;SDS011;52948;60.040;30.320;2023-08-30T02:21:36;11.18;;;5.30;;
66145;SDS011;52948;60.040;30.320;2023-08-30T02:26:39;13.32;;;5.55;;
66145;SDS011;52948;60.040;30.320;2023-08-30T02:31:42;10.85;;;5.55;;
66145;SDS011;52948;60.040;30.320;2023-08-30T02:36:44;10.80;;;5.60;;
66145;SDS011;52948;60.040;30.320;2023-08-30T02:41:46;12.00;;;5.63;;
66145;SDS011;52948;60.040;30.320;2023-08-30T02:46:49;10.50;;;5.07;;
66145;SDS011;52948;60.040;30.320;2023-08-30T02:51:51;7.72;;;5.57;;
66145;SDS011;52948;60.040;30.320;2023-08-30T02:56:53;8.32;;;5.10;;
66145;SDS011;52948;60.040;30.320;2023-08-30T03:01:55;10.20;;;4.82;;
66145;SDS011;52948;60.040;30.320;2023-08-30T03:06:58;5.57;;;3.90;;
66145;SDS011;52948;60.040;30.320;2023-08-30T03:12:03;7.80;;;5.25;;
66145;SDS011;52948;60.040;30.320;2023-08-30T03:17:07;8.45;;;4.40;;
66145;SDS011;52948;60.040;30.320;2023-08-30T03:22:09;6.72;;;4.68;;
66145;SDS011;52948;60.040;30.320;2023-08-30T03:27:11;7.55;;;4.78;;
66145;SDS011;52948;60.040;30.320;2023-08-30T03:32:15;9.77;;;4.93;;
66145;SDS011;52948;60.040;30.320;2023-08-30T03:37:19;6.72;;;4.22;;
66145;SDS011;52948;60.040;30.320;2023-08-30T03:42:21;9.32;;;4.85;;
66145;SDS011;52948;60.040;30.320;2023-08-30T03:47:24;10.55;;;4.88;;
66145;SDS011;52948;60.040;30.320;2023-08-30T03:52:26;7.10;;;4.53;;
66145;SDS011;52948;60.040;30.320;2023-08-30T03:57:28;6.00;;;4.00;;
66145;SDS011;52948;60.040;30.320;2023-08-30T04:02:31;6.80;;;3.78;;
66145;SDS011;52948;60.040;30.320;2023-08-30T04:07:33;5.35;;;3.42;;
66145;SDS011;52948;60.040;30.320;2023-08-30T04:12:37;6.30;;;3.95;;
66145;SDS011;52948;60.040;30.320;2023-08-30T04:17:40;5.82;;;3.70;;
66145;SDS011;52948;60.040;30.320;2023-08-30T04:22:42;8.57;;;4.03;;
66145;SDS011;52948;60.040;30.320;2023-08-30T04:27:44;7.65;;;3.83;;
66145;SDS011;52948;60.040;30.320;2023-08-30T04:32:47;5.60;;;4.28;;
66145;SDS011;52948;60.040;30.320;2023-08-30T04:37:49;5.53;;;3.92;;
66145;SDS011;52948;60.040;30.320;2023-08-30T04:42:51;4.32;;;3.58;;
66145;SDS011;52948;60.040;30.320;2023-08-30T04:47:54;6.40;;;4.32;;
66145;SDS011;52948;60.040;30.320;2023-08-30T04:52:56;6.30;;;3.80;;
66145;SDS011;52948;60.040;30.320;2023-08-30T04:57:59;7.50;;;4.32;;
66145;SDS011;52948;60.040;30.320;2023-08-30T05:03:05;6.22;;;3.20;;
66145;SDS011;52948;60.040;30.320;2023-08-30T05:08:07;6.90;;;3.80;;
66145;SDS011;52948;60.040;30.320;2023-08-30T05:13:09;8.38;;;3.67;;
66145;SDS011;52948;60.040;30.320;2023-08-30T05:18:13;7.72;;;4.47;;
66145;SDS011;52948;60.040;30.320;2023-08-30T05:23:15;6.68;;;3.47;;
66145;SDS011;52948;60.040;30.320;2023-08-30T05:28:18;5.80;;;3.80;;
66145;SDS011;52948;60.040;30.320;2023-08-30T05:33:20;3.83;;;2.80;;
66145;SDS011;52948;60.040;30.320;2023-08-30T05:38:37;5.90;;;3.53;;
66145;SDS011;52948;60.040;30.320;2023-08-30T05:43:57;5.43;;;3.20;;
66145;SDS011;52948;60.040;30.320;2023-08-30T05:49:00;5.25;;;3.25;;
66145;SDS011;52948;60.040;30.320;2023-08-30T05:54:05;5.75;;;3.58;;
66145;SDS011;52948;60.040;30.320;2023-08-30T05:59:08;8.02;;;3.25;;
66145;SDS011;52948;60.040;30.320;2023-08-30T06:04:10;7.45;;;3.22;;
66145;SDS011;52948;60.040;30.320;2023-08-30T06:09:12;6.15;;;3.05;;
66145;SDS011;52948;60.040;30.320;2023-08-30T06:14:14;7.30;;;4.00;;
66145;SDS011;52948;60.040;30.320;2023-08-30T06:19:17;5.05;;;3.40;;
66145;SDS011;52948;60.040;30.320;2023-08-30T06:24:20;8.10;;;3.60;;
66145;SDS011;52948;60.040;30.320;2023-08-30T06:29:22;3.85;;;3.05;;
66145;SDS011;52948;60.040;30.320;2023-08-30T06:34:25;6.05;;;2.80;;
66145;SDS011;52948;60.040;30.320;2023-08-30T06:39:32;4.35;;;2.83;;
66145;SDS011;52948;60.040;30.320;2023-08-30T06:44:35;3.58;;;2.53;;
66145;SDS011;52948;60.040;30.320;2023-08-30T06:49:37;3.42;;;1.90;;
66145;SDS011;52948;60.040;30.320;2023-08-30T06:54:40;3.58;;;2.42;;
66145;SDS011;52948;60.040;30.320;2023-08-30T06:59:43;2.97;;;2.28;;
66145;SDS011;52948;60.040;30.320;2023-08-30T07:04:45;6.82;;;2.47;;
66145;SDS011;52948;60.040;30.320;2023-08-30T07:09:47;5.50;;;2.80;;
66145;SDS011;52948;60.040;30.320;2023-08-30T07:14:49;6.47;;;2.83;;
66145;SDS011;52948;60.040;30.320;2023-08-30T07:19:51;5.03;;;2.63;;
66145;SDS011;52948;60.040;30.320;2023-08-30T07:24:54;4.78;;;2.50;;
66145;SDS011;52948;60.040;30.320;2023-08-30T07:29:57;3.47;;;2.28;;
66145;SDS011;52948;60.040;30.320;2023-08-30T07:35:00;3.70;;;2.30;;
66145;SDS011;52948;60.040;30.320;2023-08-30T07:40:02;2.03;;;1.83;;
66145;SDS011;52948;60.040;30.320;2023-08-30T07:45:07;3.20;;;1.90;;
66145;SDS011;52948;60.040;30.320;2023-08-30T07:50:10;3.05;;;1.70;;
66145;SDS011;52948;60.040;30.320;2023-08-30T07:55:13;3.20;;;2.15;;
66145;SDS011;52948;60.040;30.320;2023-08-30T08:00:16;3.25;;;1.88;;
66145;SDS011;52948;60.040;30.320;2023-08-30T08:05:20;2.53;;;1.92;;
66145;SDS011;52948;60.040;30.320;2023-08-30T08:10:22;2.30;;;1.80;;
66145;SDS011;52948;60.040;30.320;2023-08-30T08:15:25;4.50;;;1.83;;
66145;SDS011;52948;60.040;30.320;2023-08-30T08:20:28;2.70;;;1.85;;
66145;SDS011;52948;60.040;30.320;2023-08-30T08:25:31;6.45;;;1.90;;
66145;SDS011;52948;60.040;30.320;2023-08-30T08:30:33;3.63;;;1.83;;
66145;SDS011;52948;60.040;30.320;2023-08-30T08:35:35;2.20;;;1.40;;
66145;SDS011;52948;60.040;30.320;2023-08-30T08:40:38;2.97;;;1.83;;
66145;SDS011;52948;60.040;30.320;2023-08-30T08:45:44;4.40;;;1.70;;
66145;SDS011;52948;60.040;30.320;2023-08-30T08:50:47;3.50;;;1.80;;
66145;SDS011;52948;60.040;30.320;2023-08-30T08:55:51;4.00;;;1.85;;
66145;SDS011;52948;60.040;30.320;2023-08-30T09:00:54;3.00;;;1.50;;
66145;SDS011;52948;60.040;30.320;2023-08-30T09:05:56;3.47;;;2.05;;
66145;SDS011;52948;60.040;30.320;2023-08-30T09:10:59;1.73;;;1.60;;
66145;SDS011;52948;60.040;30.320;2023-08-30T09:16:02;1.80;;;1.55;;
66145;SDS011;52948;60.040;30.320;2023-08-30T09:21:08;4.15;;;1.90;;
66145;SDS011;52948;60.040;30.320;2023-08-30T09:26:11;7.43;;;2.10;;
66145;SDS011;52948;60.040;30.320;2023-08-30T09:31:17;6.00;;;3.17;;
66145;SDS011;52948;60.040;30.320;2023-08-30T09:36:21;4.30;;;2.25;;
66145;SDS011;52948;60.040;30.320;2023-08-30T09:41:24;2.50;;;1.70;;
66145;SDS011;52948;60.040;30.320;2023-08-30T09:46:27;5.82;;;2.88;;
66145;SDS011;52948;60.040;30.320;2023-08-30T09:51:29;1.27;;;1.13;;
66145;SDS011;52948;60.040;30.320;2023-08-30T09:56:32;2.35;;;1.70;;
66145;SDS011;52948;60.040;30.320;2023-08-30T10:01:36;2.60;;;1.13;;
66145;SDS011;52948;60.040;30.320;2023-08-30T10:06:39;1.52;;;1.42;;
66145;SDS011;52948;60.040;30.320;2023-08-30T10:11:41;2.85;;;1.90;;
66145;SDS011;52948;60.040;30.320;2023-08-30T10:16:48;2.30;;;1.83;;
66145;SDS011;52948;60.040;30.320;2023-08-30T10:21:56;2.50;;;1.97;;
66145;SDS011;52948;60.040;30.320;2023-08-30T10:27:06;2.40;;;1.42;;
66145;SDS011;52948;60.040;30.320;2023-08-30T10:32:10;1.63;;;0.80;;
66145;SDS011;52948;60.040;30.320;2023-08-30T10:37:12;3.60;;;2.10;;
66145;SDS011;52948;60.040;30.320;2023-08-30T10:42:15;2.78;;;2.10;;
66145;SDS011;52948;60.040;30.320;2023-08-30T10:47:27;3.70;;;2.72;;
66145;SDS011;52948;60.040;30.320;2023-08-30T10:52:32;1.45;;;1.23;;
66145;SDS011;52948;60.040;30.320;2023-08-30T10:57:35;1.98;;;1.38;;
66145;SDS011;52948;60.040;30.320;2023-08-30T11:02:38;4.07;;;2.53;;
66145;SDS011;52948;60.040;30.320;2023-08-30T11:07:40;2.53;;;2.20;;
66145;SDS011;52948;60.040;30.320;2023-08-30T11:12:43;3.90;;;2.13;;
66145;SDS011;52948;60.040;30.320;2023-08-30T11:17:47;4.90;;;2.83;;
66145;SDS011;52948;60.040;30.320;2023-08-30T11:22:50;3.88;;;2.28;;
66145;SDS011;52948;60.040;30.320;2023-08-30T11:28:01;4.45;;;2.65;;
66145;SDS011;52948;60.040;30.320;2023-08-30T11:33:05;2.92;;;2.10;;
66145;SDS011;52948;60.040;30.320;2023-08-30T11:38:07;4.80;;;2.92;;
66145;SDS011;52948;60.040;30.320;2023-08-30T11:43:09;3.47;;;2.00;;
66145;SDS011;52948;60.040;30.320;2023-08-30T11:48:12;3.50;;;2.25;;
66145;SDS011;52948;60.040;30.320;2023-08-30T11:53:14;3.20;;;2.30;;
66145;SDS011;52948;60.040;30.320;2023-08-30T11:58:17;6.68;;;2.60;;
66145;SDS011;52948;60.040;30.320;2023-08-30T12:03:20;1.80;;;1.50;;
66145;SDS011;52948;60.040;30.320;2023-08-30T12:08:23;1.75;;;1.13;;
66145;SDS011;52948;60.040;30.320;2023-08-30T12:13:34;2.90;;;1.98;;
66145;SDS011;52948;60.040;30.320;2023-08-30T12:18:42;4.60;;;2.00;;
66145;SDS011;52948;60.040;30.320;2023-08-30T12:28:46;1.55;;;1.25;;
66145;SDS011;52948;60.040;30.320;2023-08-30T12:33:49;1.58;;;1.48;;
66145;SDS011;52948;60.040;30.320;2023-08-30T12:38:51;2.65;;;2.25;;
66145;SDS011;52948;60.040;30.320;2023-08-30T12:43:53;2.85;;;1.85;;
66145;SDS011;52948;60.040;30.320;2023-08-30T12:48:56;2.83;;;1.80;;
66145;SDS011;52948;60.040;30.320;2023-08-30T12:53:58;3.42;;;1.90;;
66145;SDS011;52948;60.040;30.320;2023-08-30T12:59:00;2.30;;;1.50;;
66145;SDS011;52948;60.040;30.320;2023-08-30T13:04:03;2.30;;;1.38;;
66145;SDS011;52948;60.040;30.320;2023-08-30T13:09:05;1.52;;;1.42;;
66145;SDS011;52948;60.040;30.320;2023-08-30T13:14:07;2.00;;;1.40;;
66145;SDS011;52948;60.040;30.320;2023-08-30T13:19:09;2.33;;;1.48;;
66145;SDS011;52948;60.040;30.320;2023-08-30T13:24:12;2.03;;;1.48;;
66145;SDS011;52948;60.040;30.320;2023-08-30T13:29:14;2.00;;;1.30;;
66145;SDS011;52948;60.040;30.320;2023-08-30T13:34:17;4.43;;;1.30;;
66145;SDS011;52948;60.040;30.320;2023-08-30T13:39:21;3.20;;;1.45;;
66145;SDS011;52948;60.040;30.320;2023-08-30T13:44:24;3.72;;;1.65;;
66145;SDS011;52948;60.040;30.320;2023-08-30T13:49:27;2.47;;;1.48;;
66145;SDS011;52948;60.040;30.320;2023-08-30T13:54:29;3.00;;;1.65;;
66145;SDS011;52948;60.040;30.320;2023-08-30T13:59:32;2.78;;;2.00;;
66145;SDS011;52948;60.040;30.320;2023-08-30T14:04:37;2.83;;;1.50;;
66145;SDS011;52948;60.040;30.320;2023-08-30T14:09:40;2.63;;;2.00;;
66145;SDS011;52948;60.040;30.320;2023-08-30T14:14:43;4.28;;;1.58;;
66145;SDS011;52948;60.040;30.320;2023-08-30T14:19:46;1.35;;;1.17;;
66145;SDS011;52948;60.040;30.320;2023-08-30T14:24:48;3.15;;;1.48;;
66145;SDS011;52948;60.040;30.320;2023-08-30T14:29:51;2.60;;;2.33;;
66145;SDS011;52948;60.040;30.320;2023-08-30T14:34:53;4.72;;;1.98;;
66145;SDS011;52948;60.040;30.320;2023-08-30T14:39:55;2.47;;;1.70;;
66145;SDS011;52948;60.040;30.320;2023-08-30T14:44:57;3.80;;;1.77;;
66145;SDS011;52948;60.040;30.320;2023-08-30T14:50:01;2.03;;;1.75;;
66145;SDS011;52948;60.040;30.320;2023-08-30T14:55:05;4.38;;;1.80;;
66145;SDS011;52948;60.040;30.320;2023-08-30T15:00:08;4.22;;;2.17;;
66145;SDS011;52948;60.040;30.320;2023-08-30T15:05:10;4.70;;;2.20;;
66145;SDS011;52948;60.040;30.320;2023-08-30T15:10:13;3.95;;;2.65;;
66145;SDS011;52948;60.040;30.320;2023-08-30T15:15:16;2.97;;;2.10;;
66145;SDS011;52948;60.040;30.320;2023-08-30T15:20:22;3.03;;;2.23;;
66145;SDS011;52948;60.040;30.320;2023-08-30T15:25:25;5.40;;;2.33;;
66145;SDS011;52948;60.040;30.320;2023-08-30T15:30:27;3.53;;;1.80;;
66145;SDS011;52948;60.040;30.320;2023-08-30T15:35:30;2.97;;;1.92;;
66145;SDS011;52948;60.040;30.320;2023-08-30T15:40:32;2.35;;;2.00;;
66145;SDS011;52948;60.040;30.320;2023-08-30T15:45:35;2.03;;;1.67;;
66145;SDS011;52948;60.040;30.320;2023-08-30T15:50:38;3.45;;;2.72;;
66145;SDS011;52948;60.040;30.320;2023-08-30T15:55:40;4.93;;;1.95;;
66145;SDS011;52948;60.040;30.320;2023-08-30T16:00:42;3.13;;;2.05;;
66145;SDS011;52948;60.040;30.320;2023-08-30T16:05:44;3.88;;;2.00;;
66145;SDS011;52948;60.040;30.320;2023-08-30T16:10:51;5.85;;;2.67;;
66145;SDS011;52948;60.040;30.320;2023-08-30T16:15:55;4.57;;;2.92;;
66145;SDS011;52948;60.040;30.320;2023-08-30T16:20:57;2.42;;;1.73;;
66145;SDS011;52948;60.040;30.320;2023-08-30T16:25:59;3.47;;;1.75;;
66145;SDS011;52948;60.040;30.320;2023-08-30T16:31:05;5.35;;;1.98;;
66145;SDS011;52948;60.040;30.320;2023-08-30T16:36:08;4.17;;;2.50;;
66145;SDS011;52948;60.040;30.320;2023-08-30T16:41:10;3.05;;;2.28;;
66145;SDS011;52948;60.040;30.320;2023-08-30T16:46:12;4.70;;;2.20;;
66145;SDS011;52948;60.040;30.320;2023-08-30T16:51:15;4.35;;;2.50;;
66145;SDS011;52948;60.040;30.320;2023-08-30T16:56:17;3.03;;;2.60;;
66145;SDS011;52948;60.040;30.320;2023-08-30T17:01:19;2.00;;;1.77;;
66145;SDS011;52948;60.040;30.320;2023-08-30T17:06:21;2.90;;;2.05;;
66145;SDS011;52948;60.040;30.320;2023-08-30T17:11:24;1.92;;;1.38;;
66145;SDS011;52948;60.040;30.320;2023-08-30T17:16:26;3.42;;;2.33;;
66145;SDS011;52948;60.040;30.320;2023-08-30T17:21:29;2.75;;;1.70;;
66145;SDS011;52948;60.040;30.320;2023-08-30T17:26:31;3.25;;;2.22;;
66145;SDS011;52948;60.040;30.320;2023-08-30T17:31:33;3.03;;;1.90;;
66145;SDS011;52948;60.040;30.320;2023-08-30T17:36:36;2.85;;;2.00;;
66145;SDS011;52948;60.040;30.320;2023-08-30T17:41:38;2.13;;;1.88;;
66145;SDS011;52948;60.040;30.320;2023-08-30T17:46:41;2.55;;;2.03;;
66145;SDS011;52948;60.040;30.320;2023-08-30T17:51:45;3.88;;;2.40;;
66145;SDS011;52948;60.040;30.320;2023-08-30T17:56:48;2.70;;;1.90;;
66145;SDS011;52948;60.040;30.320;2023-08-30T18:01:50;2.40;;;2.20;;
66145;SDS011;52948;60.040;30.320;2023-08-30T18:06:54;3.20;;;2.13;;
66145;SDS011;52948;60.040;30.320;2023-08-30T18:11:59;5.53;;;2.20;;
66145;SDS011;52948;60.040;30.320;2023-08-30T18:17:01;4.22;;;3.03;;
66145;SDS011;52948;60.040;30.320;2023-08-30T18:22:05;3.70;;;2.13;;
66145;SDS011;52948;60.040;30.320;2023-08-30T18:27:08;3.15;;;2.22;;
66145;SDS011;52948;60.040;30.320;2023-08-30T18:32:11;2.97;;;2.20;;
66145;SDS011;52948;60.040;30.320;2023-08-30T18:37:14;3.85;;;2.60;;
66145;SDS011;52948;60.040;30.320;2023-08-30T18:42:22;4.75;;;2.40;;
66145;SDS011;52948;60.040;30.320;2023-08-30T18:47:25;3.90;;;2.47;;
66145;SDS011;52948;60.040;30.320;2023-08-30T18:52:27;6.30;;;2.78;;
66145;SDS011;52948;60.040;30.320;2023-08-30T18:57:30;5.15;;;2.45;;
66145;SDS011;52948;60.040;30.320;2023-08-30T19:02:32;3.58;;;2.42;;
66145;SDS011;52948;60.040;30.320;2023-08-30T19:07:35;2.47;;;1.88;;
66145;SDS011;52948;60.040;30.320;2023-08-30T19:12:37;4.45;;;2.50;;
66145;SDS011;52948;60.040;30.320;2023-08-30T19:17:40;3.67;;;2.60;;
66145;SDS011;52948;60.040;30.320;2023-08-30T19:22:43;6.05;;;2.28;;
66145;SDS011;52948;60.040;30.320;2023-08-30T19:27:50;5.30;;;2.40;;
66145;SDS011;52948;60.040;30.320;2023-08-30T19:32:53;6.38;;;2.60;;
66145;SDS011;52948;60.040;30.320;2023-08-30T19:37:55;4.00;;;2.17;;
66145;SDS011;52948;60.040;30.320;2023-08-30T19:42:57;4.03;;;2.40;;
66145;SDS011;52948;60.040;30.320;2023-08-30T19:48:00;2.00;;;1.58;;
66145;SDS011;52948;60.040;30.320;2023-08-30T19:53:03;4.85;;;2.42;;
66145;SDS011;52948;60.040;30.320;2023-08-30T19:58:05;3.70;;;2.20;;
66145;SDS011;52948;60.040;30.320;2023-08-30T20:03:09;4.07;;;2.38;;
66145;SDS011;52948;60.040;30.320;2023-08-30T20:08:12;9.07;;;2.85;;
66145;SDS011;52948;60.040;30.320;2023-08-30T20:13:14;2.50;;;2.08;;
66145;SDS011;52948;60.040;30.320;2023-08-30T20:18:16;4.93;;;1.98;;
66145;SDS011;52948;60.040;30.320;2023-08-30T20:23:19;7.53;;;2.50;;
66145;SDS011;52948;60.040;30.320;2023-08-30T20:28:22;4.22;;;2.20;;
66145;SDS011;52948;60.040;30.320;2023-08-30T20:33:24;5.80;;;2.42;;
66145;SDS011;52948;60.040;30.320;2023-08-30T20:38:27;2.80;;;1.70;;
66145;SDS011;52948;60.040;30.320;2023-08-30T20:43:31;3.78;;;2.25;;
66145;SDS011;52948;60.040;30.320;2023-08-30T20:48:33;2.72;;;2.15;;
66145;SDS011;52948;60.040;30.320;2023-08-30T20:53:37;5.57;;;2.40;;
66145;SDS011;52948;60.040;30.320;2023-08-30T20:58:41;3.25;;;2.00;;
66145;SDS011;52948;60.040;30.320;2023-08-30T21:03:51;3.13;;;2.22;;
66145;SDS011;52948;60.040;30.320;2023-08-30T21:08:54;2.55;;;1.85;;
66145;SDS011;52948;60.040;30.320;2023-08-30T21:13:58;3.42;;;2.05;;
66145;SDS011;52948;60.040;30.320;2023-08-30T21:19:02;1.95;;;1.48;;
66145;SDS011;52948;60.040;30.320;2023-08-30T21:24:05;2.08;;;1.60;;
66145;SDS011;52948;60.040;30.320;2023-08-30T21:29:10;2.08;;;1.70;;
66145;SDS011;52948;60.040;30.320;2023-08-30T21:34:13;2.42;;;2.00;;
66145;SDS011;52948;60.040;30.320;2023-08-30T21:39:15;4.00;;;1.60;;
66145;SDS011;52948;60.040;30.320;2023-08-30T21:44:19;3.92;;;2.10;;
66145;SDS011;52948;60.040;30.320;2023-08-30T21:49:21;3.95;;;2.17;;
66145;SDS011;52948;60.040;30.320;2023-08-30T21:54:23;2.88;;;2.15;;
66145;SDS011;52948;60.040;30.320;2023-08-30T21:59:25;3.28;;;1.90;;
66145;SDS011;52948;60.040;30.320;2023-08-30T22:04:28;2.53;;;1.75;;
66145;SDS011;52948;60.040;30.320;2023-08-30T22:09:30;2.33;;;2.10;;
66145;SDS011;52948;60.040;30.320;2023-08-30T22:14:32;3.72;;;2.03;;
66145;SDS011;52948;60.040;30.320;2023-08-30T22:19:38;3.65;;;2.33;;
66145;SDS011;52948;60.040;30.320;2023-08-30T22:24:40;3.85;;;1.85;;
66145;SDS011;52948;60.040;30.320;2023-08-30T22:29:42;3.30;;;2.05;;
66145;SDS011;52948;60.040;30.320;2023-08-30T22:34:44;2.17;;;1.75;;
66145;SDS011;52948;60.040;30.320;2023-08-30T22:39:46;2.88;;;2.10;;
66145;SDS011;52948;60.040;30.320;2023-08-30T22:44:49;2.05;;;1.75;;
66145;SDS011;52948;60.040;30.320;2023-08-30T22:49:52;5.55;;;2.53;;
66145;SDS011;52948;60.040;30.320;2023-08-30T22:54:54;1.67;;;1.58;;
66145;SDS011;52948;60.040;30.320;2023-08-30T22:59:56;3.72;;;1.88;;
66145;SDS011;52948;60.040;30.320;2023-08-30T23:04:58;2.38;;;1.80;;
66145;SDS011;52948;60.040;30.320;2023-08-30T23:10:01;4.90;;;2.70;;
66145;SDS011;52948;60.040;30.320;2023-08-30T23:15:06;3.15;;;2.30;;
66145;SDS011;52948;60.040;30.320;2023-08-30T23:20:09;3.08;;;2.08;;
66145;SDS011;52948;60.040;30.320;2023-08-30T23:25:14;3.50;;;2.25;;
66145;SDS011;52948;60.040;30.320;2023-08-30T23:30:17;6.13;;;1.98;;
66145;SDS011;52948;60.040;30.320;2023-08-30T23:35:20;4.07;;;2.00;;
66145;SDS011;52948;60.040;30.320;2023-08-30T23:40:22;2.97;;;2.15;;
66145;SDS011;52948;60.040;30.320;2023-08-30T23:45:24;2.72;;;1.90;;
66145;SDS011;52948;60.040;30.320;2023-08-30T23:50:27;2.78;;;1.77;;
66145;SDS011;52948;60.040;30.320;2023-08-30T23:55:30;2.50;;;2.10;;
